logo
Rechercher aéroport 
image banner adimage banner adimage banner ad
image banner ad

SMAF - Afobakka

Situé à , Suriname

ICAO - SMAF, IATA -

Données fournies par Airmate  

Information générale

Coordonnées: N4°59'54" W54°59'32"
Élévation : 80 feet MSL.
 
Voir autres Aéroports à Brokopondo

Données opérationnelles

Special qualification required
Heure actuelle UTC:
Heure actuelle locale:
METAR: SMJP 232000Z 07006KT 9999 VCSH FEW012 FEW015CB SCT022 34/22 Q1012 NOSIG
Voir NOTAMs / SUP AIP / TFR affectant cet aéroport [VIEW]
Fréquences de communication: [VIEW]

Pistes:

Identifiant RWYQFULongueur (ft)Largeur (ft)SurfaceLDA (ft)
0300UNK
2100UNK

Coordonnées de l'aéroport

Adresse: Suriname

Vue satellite de SMAF